Time;durP1;ratioP1;P1;durP2;ratioP2;P2;SDS_P1;SDS_P2;PMS_P1;PMS_P2;Temp;Humidity;BMP_temperature;BMP_pressure;BME280_temperature;BME280_humidity;BME280_pressure;Samples;Min_cycle;Max_cycle;Signal;HPM_P1;HPM_P2
2021/04/17 00:02:10;;;;;;;17.75;7.97;;;;;;;;;;4993024;28;20050;-66
2021/04/17 00:04:39;;;;;;;20.42;9.15;;;;;;;;;;4993199;28;20557;-66
2021/04/17 00:07:07;;;;;;;18.70;9.13;;;;;;;;;;4991551;28;20446;-66
2021/04/17 00:09:35;;;;;;;18.30;8.88;;;;;;;;;;4992843;28;20050;-66
2021/04/17 00:12:05;;;;;;;20.20;8.85;;;;;;;;;;4988100;28;20046;-65
2021/04/17 00:14:33;;;;;;;18.90;9.02;;;;;;;;;;4992996;28;20295;-65
2021/04/17 00:17:17;;;;;;;19.65;8.80;;;;;;;;;;4991149;28;20042;-67
2021/04/17 00:19:45;;;;;;;14.82;7.55;;;;;;;;;;4992642;28;20046;-65
2021/04/17 00:22:13;;;;;;;17.70;8.80;;;;;;;;;;4991781;28;20409;-66
2021/04/17 00:24:40;;;;;;;13.65;8.15;;;;;;;;;;4994703;28;20129;-66
2021/04/17 00:27:09;;;;;;;17.85;7.95;;;;;;;;;;4989998;28;20460;-66
2021/04/17 00:29:37;;;;;;;13.60;7.38;;;;;;;;;;4991025;28;20546;-65
2021/04/17 00:32:05;;;;;;;14.98;8.02;;;;;;;;;;4985357;28;20082;-67
2021/04/17 00:34:33;;;;;;;15.27;8.63;;;;;;;;;;4989392;28;20066;-66
2021/04/17 00:37:01;;;;;;;14.27;7.70;;;;;;;;;;4990716;28;20065;-66
2021/04/17 00:39:28;;;;;;;12.18;7.28;;;;;;;;;;4993146;28;20078;-66
2021/04/17 00:41:55;;;;;;;18.45;8.02;;;;;;;;;;4990467;28;20060;-66
2021/04/17 00:44:23;;;;;;;11.70;7.03;;;;;;;;;;4988933;28;20042;-65
2021/04/17 00:46:51;;;;;;;12.93;7.07;;;;;;;;;;4990866;28;20133;-65
2021/04/17 00:49:19;;;;;;;13.93;7.68;;;;;;;;;;4991585;28;20059;-66
2021/04/17 00:51:46;;;;;;;14.27;7.72;;;;;;;;;;4991113;28;20052;-66
2021/04/17 00:54:13;;;;;;;14.23;7.78;;;;;;;;;;4992476;28;20141;-65
2021/04/17 00:56:41;;;;;;;12.90;8.50;;;;;;;;;;4991155;28;20061;-66
2021/04/17 00:59:08;;;;;;;13.85;7.72;;;;;;;;;;4991524;28;20133;-66
2021/04/17 01:04:15;;;;;;;14.55;7.32;;;;;;;;;;4973992;28;20050;-61
2021/04/17 01:06:47;;;;;;;14.73;7.75;;;;;;;;;;4977251;28;20089;-61
2021/04/17 01:09:20;;;;;;;11.80;7.10;;;;;;;;;;4973574;28;20047;-61
2021/04/17 01:11:53;;;;;;;13.45;7.13;;;;;;;;;;4973334;28;20057;-61
2021/04/17 01:14:22;;;;;;;12.68;7.63;;;;;;;;;;4969634;28;20133;-61
2021/04/17 01:16:50;;;;;;;12.80;7.03;;;;;;;;;;4971690;28;20466;-61
2021/04/17 01:19:29;;;;;;;13.48;7.55;;;;;;;;;;4972235;28;20050;-62
2021/04/17 01:21:56;;;;;;;13.27;7.60;;;;;;;;;;4963357;28;20061;-62
2021/04/17 01:24:25;;;;;;;14.05;7.82;;;;;;;;;;4966465;28;20051;-62
2021/04/17 01:26:54;;;;;;;15.68;7.93;;;;;;;;;;4967588;28;20114;-63
2021/04/17 01:29:21;;;;;;;11.88;7.50;;;;;;;;;;4971732;28;20130;-62
2021/04/17 01:31:49;;;;;;;13.02;7.78;;;;;;;;;;4971072;28;20055;-62
2021/04/17 01:34:17;;;;;;;14.70;7.78;;;;;;;;;;4972629;28;20074;-62
2021/04/17 01:36:44;;;;;;;15.20;7.72;;;;;;;;;;4971584;28;20498;-62
2021/04/17 01:39:12;;;;;;;14.10;7.95;;;;;;;;;;4971289;28;20140;-62
2021/04/17 01:41:40;;;;;;;15.23;7.80;;;;;;;;;;4972759;28;20153;-62
2021/04/17 01:44:10;;;;;;;15.68;8.07;;;;;;;;;;4969821;28;20058;-62
2021/04/17 01:46:42;;;;;;;15.23;8.27;;;;;;;;;;4972216;28;20121;-62
2021/04/17 01:49:11;;;;;;;12.50;7.05;;;;;;;;;;4970805;28;20082;-62
2021/04/17 01:51:39;;;;;;;15.77;8.35;;;;;;;;;;4960248;28;20042;-62
2021/04/17 01:54:09;;;;;;;15.20;7.75;;;;;;;;;;4971341;28;20066;-62
2021/04/17 01:56:36;;;;;;;14.52;7.45;;;;;;;;;;4971660;28;20485;-62
2021/04/17 01:59:04;;;;;;;16.50;8.40;;;;;;;;;;4970017;28;20137;-62
2021/04/17 02:01:32;;;;;;;13.43;7.15;;;;;;;;;;4963519;28;20134;-62
2021/04/17 02:04:00;;;;;;;14.32;7.25;;;;;;;;;;4972252;28;20494;-62
2021/04/17 02:06:28;;;;;;;16.67;7.90;;;;;;;;;;4970937;28;20049;-62
2021/04/17 02:08:55;;;;;;;12.68;7.22;;;;;;;;;;4970843;28;20147;-63
2021/04/17 02:11:22;;;;;;;17.95;7.72;;;;;;;;;;4971745;28;20138;-63
2021/04/17 02:13:50;;;;;;;13.35;7.90;;;;;;;;;;4971017;28;20049;-63
2021/04/17 02:16:18;;;;;;;12.85;7.28;;;;;;;;;;4969729;28;20067;-63
2021/04/17 02:18:54;;;;;;;12.88;7.50;;;;;;;;;;4970130;28;20415;-63
2021/04/17 02:21:23;;;;;;;14.60;7.82;;;;;;;;;;4971308;28;20050;-63
2021/04/17 02:23:51;;;;;;;15.93;8.57;;;;;;;;;;4971745;28;20049;-63
2021/04/17 02:26:18;;;;;;;15.05;7.72;;;;;;;;;;4971712;28;20122;-63
2021/04/17 02:28:46;;;;;;;14.52;8.20;;;;;;;;;;4970764;28;20604;-63
2021/04/17 02:31:13;;;;;;;16.85;7.70;;;;;;;;;;4969021;28;20398;-63
2021/04/17 02:33:41;;;;;;;15.00;8.30;;;;;;;;;;4971212;28;20561;-63
2021/04/17 02:36:09;;;;;;;13.82;8.07;;;;;;;;;;4970454;28;20133;-63
2021/04/17 02:38:36;;;;;;;18.42;8.82;;;;;;;;;;4963885;28;20138;-63
2021/04/17 02:41:04;;;;;;;21.10;9.18;;;;;;;;;;4971968;28;20106;-63
2021/04/17 02:43:31;;;;;;;15.88;8.57;;;;;;;;;;4970659;28;20046;-63
2021/04/17 02:45:58;;;;;;;15.60;7.47;;;;;;;;;;4967763;28;20049;-63
2021/04/17 02:48:25;;;;;;;16.88;8.50;;;;;;;;;;4970740;28;20053;-63
2021/04/17 02:50:53;;;;;;;18.17;8.93;;;;;;;;;;4972181;28;20047;-63
2021/04/17 02:53:21;;;;;;;18.92;8.48;;;;;;;;;;4962205;28;20053;-63
2021/04/17 02:55:48;;;;;;;20.40;9.50;;;;;;;;;;4971607;28;20074;-63
2021/04/17 02:58:15;;;;;;;17.55;8.98;;;;;;;;;;4970634;28;20050;-63
2021/04/17 03:00:43;;;;;;;18.30;9.10;;;;;;;;;;4970731;28;20047;-63
2021/04/17 03:03:10;;;;;;;15.07;8.60;;;;;;;;;;4971432;28;20146;-63
2021/04/17 03:05:38;;;;;;;16.15;8.63;;;;;;;;;;4975397;28;20046;-63
2021/04/17 03:08:05;;;;;;;17.35;8.90;;;;;;;;;;4973992;28;20450;-63
2021/04/17 03:10:35;;;;;;;18.42;8.75;;;;;;;;;;4974467;28;20098;-63
2021/04/17 03:13:02;;;;;;;20.08;9.48;;;;;;;;;;4966879;28;20244;-63
2021/04/17 03:15:29;;;;;;;18.23;9.65;;;;;;;;;;4958650;28;20047;-63
2021/04/17 03:17:57;;;;;;;16.70;8.73;;;;;;;;;;4973759;28;20058;-64
2021/04/17 03:20:24;;;;;;;21.33;9.40;;;;;;;;;;4969987;28;20494;-62
2021/04/17 03:22:52;;;;;;;20.05;9.10;;;;;;;;;;4974290;28;20134;-62
2021/04/17 03:25:19;;;;;;;18.90;9.50;;;;;;;;;;4970722;28;20134;-62
2021/04/17 03:27:47;;;;;;;17.08;9.35;;;;;;;;;;4974626;28;20069;-62
2021/04/17 03:30:16;;;;;;;18.83;8.80;;;;;;;;;;4965199;28;20047;-62
2021/04/17 03:32:44;;;;;;;18.30;9.15;;;;;;;;;;4964063;28;20130;-62
2021/04/17 03:35:12;;;;;;;16.58;9.15;;;;;;;;;;4972198;28;20105;-62
2021/04/17 03:37:41;;;;;;;18.85;9.98;;;;;;;;;;4974858;28;20076;-62
2021/04/17 03:40:10;;;;;;;20.42;9.80;;;;;;;;;;4971838;28;20522;-62
2021/04/17 03:42:37;;;;;;;18.90;9.30;;;;;;;;;;4973213;28;20384;-62
2021/04/17 03:45:06;;;;;;;24.33;10.20;;;;;;;;;;4974808;28;20065;-62
2021/04/17 03:47:34;;;;;;;20.98;10.35;;;;;;;;;;4970666;28;20577;-62
2021/04/17 03:50:01;;;;;;;19.08;9.77;;;;;;;;;;4973076;28;20553;-62
2021/04/17 03:52:28;;;;;;;19.05;9.40;;;;;;;;;;4973956;28;20051;-62
2021/04/17 03:54:56;;;;;;;21.05;9.98;;;;;;;;;;4974195;28;20073;-62
2021/04/17 03:57:23;;;;;;;19.48;9.77;;;;;;;;;;4974116;28;20141;-62
2021/04/17 03:59:50;;;;;;;18.63;9.52;;;;;;;;;;4973526;28;20082;-62
2021/04/17 04:02:18;;;;;;;23.52;10.20;;;;;;;;;;4972635;28;20071;-62
2021/04/17 04:04:47;;;;;;;21.25;10.95;;;;;;;;;;4973835;28;20066;-63
2021/04/17 04:07:14;;;;;;;22.40;9.13;;;;;;;;;;4973790;28;20073;-63
2021/04/17 04:09:41;;;;;;;19.90;10.20;;;;;;;;;;4973212;28;20051;-63
2021/04/17 04:12:10;;;;;;;21.83;10.40;;;;;;;;;;4973095;28;20057;-63
2021/04/17 04:14:37;;;;;;;18.55;9.30;;;;;;;;;;4974374;28;20046;-63
2021/04/17 04:17:04;;;;;;;24.58;10.40;;;;;;;;;;4968165;28;20332;-63
2021/04/17 04:19:34;;;;;;;20.17;10.05;;;;;;;;;;4974833;28;20054;-62
2021/04/17 04:22:01;;;;;;;18.52;9.73;;;;;;;;;;4973025;28;20586;-63
2021/04/17 04:24:29;;;;;;;19.35;9.95;;;;;;;;;;4974312;28;20138;-63
2021/04/17 04:26:56;;;;;;;20.02;10.38;;;;;;;;;;4973625;28;20078;-63
2021/04/17 04:29:23;;;;;;;24.25;11.32;;;;;;;;;;4974671;28;20134;-63
2021/04/17 04:31:51;;;;;;;21.70;10.70;;;;;;;;;;4962684;28;20081;-63
2021/04/17 04:34:18;;;;;;;19.60;9.90;;;;;;;;;;4962432;28;20046;-63
2021/04/17 04:36:46;;;;;;;22.90;10.18;;;;;;;;;;4973091;28;20070;-64
2021/04/17 04:39:14;;;;;;;23.77;11.15;;;;;;;;;;4967333;28;20102;-63
2021/04/17 04:41:41;;;;;;;24.80;11.10;;;;;;;;;;4957206;28;20053;-63
2021/04/17 04:44:09;;;;;;;28.20;12.02;;;;;;;;;;4965788;28;20388;-62
2021/04/17 04:46:37;;;;;;;20.42;10.27;;;;;;;;;;4971954;28;20045;-63
2021/04/17 04:49:05;;;;;;;23.48;10.57;;;;;;;;;;4968589;28;20055;-62
2021/04/17 04:51:32;;;;;;;27.38;11.60;;;;;;;;;;4973055;28;20419;-63
2021/04/17 04:54:00;;;;;;;23.08;11.30;;;;;;;;;;4973078;28;20486;-63
2021/04/17 04:56:28;;;;;;;23.38;10.95;;;;;;;;;;4968508;28;20067;-63
2021/04/17 04:58:55;;;;;;;22.33;10.05;;;;;;;;;;4961025;28;20054;-63
2021/04/17 05:01:22;;;;;;;26.48;11.85;;;;;;;;;;4962312;28;20059;-63
2021/04/17 05:03:50;;;;;;;24.20;11.52;;;;;;;;;;4969558;28;20051;-62
2021/04/17 05:06:18;;;;;;;30.17;11.93;;;;;;;;;;4973378;28;20047;-63
2021/04/17 05:08:45;;;;;;;25.05;12.23;;;;;;;;;;4969809;28;20981;-62
2021/04/17 05:11:13;;;;;;;27.90;12.52;;;;;;;;;;4959875;28;20105;-62
2021/04/17 05:13:41;;;;;;;28.17;11.48;;;;;;;;;;4971964;28;20051;-63
2021/04/17 05:16:08;;;;;;;25.67;11.25;;;;;;;;;;4972714;28;20047;-64
2021/04/17 05:18:35;;;;;;;28.35;11.57;;;;;;;;;;4960349;28;20134;-64
2021/04/17 05:21:03;;;;;;;25.13;11.50;;;;;;;;;;4976622;28;20122;-64
2021/04/17 05:23:31;;;;;;;26.63;12.68;;;;;;;;;;4971370;28;20516;-64
2021/04/17 05:25:58;;;;;;;31.92;14.00;;;;;;;;;;4972256;28;20461;-64
2021/04/17 05:28:26;;;;;;;32.25;15.20;;;;;;;;;;4972426;28;20454;-61
2021/04/17 05:30:53;;;;;;;33.63;15.15;;;;;;;;;;4971588;28;20077;-61
2021/04/17 05:33:21;;;;;;;28.92;13.80;;;;;;;;;;4972212;28;20051;-61
2021/04/17 05:35:49;;;;;;;29.90;13.77;;;;;;;;;;4966402;28;20134;-63
2021/04/17 05:38:16;;;;;;;34.75;15.65;;;;;;;;;;4960862;28;20051;-64
2021/04/17 05:40:44;;;;;;;36.25;15.25;;;;;;;;;;4960461;28;20109;-61
2021/04/17 05:43:11;;;;;;;37.55;16.20;;;;;;;;;;4970389;28;20130;-61
2021/04/17 05:45:40;;;;;;;31.85;14.68;;;;;;;;;;4968257;28;20043;-62
2021/04/17 05:48:08;;;;;;;32.85;14.88;;;;;;;;;;4963779;28;20113;-62
2021/04/17 05:50:35;;;;;;;33.08;16.08;;;;;;;;;;4968785;28;20054;-62
2021/04/17 05:53:03;;;;;;;36.30;15.27;;;;;;;;;;4970484;28;20058;-63
2021/04/17 05:55:30;;;;;;;32.75;14.98;;;;;;;;;;4972539;28;20109;-63
2021/04/17 05:57:57;;;;;;;34.03;15.88;;;;;;;;;;4970587;28;20130;-63
2021/04/17 06:00:25;;;;;;;33.03;15.38;;;;;;;;;;4970921;28;20081;-62
2021/04/17 06:02:54;;;;;;;30.98;14.90;;;;;;;;;;4971427;28;20106;-63
2021/04/17 06:05:32;;;;;;;33.90;15.65;;;;;;;;;;639072;28;10002119;-62
2021/04/17 06:08:03;;;;;;;32.75;15.45;;;;;;;;;;4982299;28;20263;-62
2021/04/17 06:10:30;;;;;;;30.58;15.50;;;;;;;;;;4990510;28;20549;-62
2021/04/17 06:12:58;;;;;;;33.70;15.93;;;;;;;;;;4990012;28;20080;-62
2021/04/17 06:15:26;;;;;;;33.80;15.68;;;;;;;;;;4979434;28;20528;-62
2021/04/17 06:17:54;;;;;;;32.85;16.35;;;;;;;;;;4989439;28;20058;-63
2021/04/17 06:20:23;;;;;;;32.47;16.15;;;;;;;;;;4987544;28;20137;-63
2021/04/17 06:22:55;;;;;;;32.85;16.08;;;;;;;;;;4989243;28;20101;-63
2021/04/17 06:25:22;;;;;;;34.15;16.85;;;;;;;;;;4992091;28;20050;-64
2021/04/17 06:27:50;;;;;;;30.38;15.32;;;;;;;;;;4990869;28;20050;-63
2021/04/17 06:30:17;;;;;;;33.20;15.77;;;;;;;;;;4988879;28;20047;-63
2021/04/17 06:32:49;;;;;;;31.58;16.00;;;;;;;;;;4991952;28;20060;-62
2021/04/17 06:35:18;;;;;;;32.20;15.82;;;;;;;;;;4988756;28;20392;-63
2021/04/17 06:37:45;;;;;;;39.28;18.27;;;;;;;;;;4979090;28;20470;-63
2021/04/17 06:40:13;;;;;;;31.60;15.20;;;;;;;;;;4976661;28;20042;-63
2021/04/17 06:42:41;;;;;;;37.28;16.33;;;;;;;;;;4973812;28;20523;-63
2021/04/17 06:45:09;;;;;;;33.15;16.27;;;;;;;;;;4976206;28;20501;-63
2021/04/17 06:47:39;;;;;;;31.80;15.52;;;;;;;;;;4966260;28;20076;-63
2021/04/17 06:50:07;;;;;;;32.85;15.93;;;;;;;;;;4968894;28;20098;-70
2021/04/17 06:52:37;;;;;;;31.20;15.38;;;;;;;;;;4962645;28;20148;-63
2021/04/17 06:55:05;;;;;;;32.75;15.23;;;;;;;;;;4966837;28;20451;-63
2021/04/17 06:57:32;;;;;;;33.33;15.13;;;;;;;;;;4968190;28;20166;-63
2021/04/17 07:00:00;;;;;;;35.30;15.65;;;;;;;;;;4967409;28;20145;-63
2021/04/17 07:02:28;;;;;;;32.75;16.10;;;;;;;;;;4959770;28;20146;-63
2021/04/17 07:04:56;;;;;;;33.42;14.88;;;;;;;;;;4967552;28;20065;-63
2021/04/17 07:07:23;;;;;;;33.35;15.90;;;;;;;;;;4967709;28;20122;-63
2021/04/17 07:09:52;;;;;;;32.35;15.95;;;;;;;;;;4969510;28;20546;-63
2021/04/17 07:12:19;;;;;;;35.70;17.10;;;;;;;;;;4972701;28;20134;-63
2021/04/17 07:14:47;;;;;;;33.25;15.48;;;;;;;;;;4967498;28;20101;-63
2021/04/17 07:17:16;;;;;;;30.77;14.43;;;;;;;;;;4965680;28;20074;-63
2021/04/17 07:19:48;;;;;;;35.05;16.05;;;;;;;;;;4968610;28;20057;-63
2021/04/17 07:22:16;;;;;;;34.08;16.17;;;;;;;;;;4962299;28;20055;-64
2021/04/17 07:24:44;;;;;;;36.90;15.70;;;;;;;;;;4968089;28;20125;-63
2021/04/17 07:27:29;;;;;;;31.90;14.70;;;;;;;;;;4977477;28;20064;-63
2021/04/17 07:29:56;;;;;;;;;;;;;;;;;;4989913;28;20047;-63
2021/04/17 07:32:24;;;;;;;31.65;13.73;;;;;;;;;;4988009;28;19934;-63
2021/04/17 07:35:04;;;;;;;30.20;14.45;;;;;;;;;;4984005;28;20437;-63
2021/04/17 07:37:32;;;;;;;26.83;14.20;;;;;;;;;;4987055;28;20082;-63
2021/04/17 07:40:16;;;;;;;30.88;15.27;;;;;;;;;;4986957;28;20125;-63
2021/04/17 07:42:45;;;;;;;31.05;16.45;;;;;;;;;;4989475;28;20137;-63
2021/04/17 07:45:19;;;;;;;30.50;14.50;;;;;;;;;;4987135;28;20495;-63
2021/04/17 07:47:46;;;;;;;28.63;14.55;;;;;;;;;;4986011;28;20125;-63
2021/04/17 07:50:14;;;;;;;29.35;15.45;;;;;;;;;;4988546;28;20050;-63
2021/04/17 07:52:43;;;;;;;25.25;13.25;;;;;;;;;;4983844;28;20050;-63
2021/04/17 07:55:11;;;;;;;24.70;12.73;;;;;;;;;;4990680;28;20049;-63
2021/04/17 07:57:40;;;;;;;26.02;12.95;;;;;;;;;;4983456;28;20548;-63
2021/04/17 08:00:10;;;;;;;23.60;12.02;;;;;;;;;;4994136;28;20093;-63
2021/04/17 08:02:38;;;;;;;23.40;12.88;;;;;;;;;;4986345;28;20391;-63
2021/04/17 08:05:07;;;;;;;26.63;12.15;;;;;;;;;;4985570;28;20061;-63
2021/04/17 08:07:34;;;;;;;27.02;13.60;;;;;;;;;;4992304;28;20124;-64
2021/04/17 08:10:02;;;;;;;23.05;11.90;;;;;;;;;;4992225;28;20549;-63
2021/04/17 08:12:29;;;;;;;24.35;11.70;;;;;;;;;;4990711;28;20542;-63
2021/04/17 08:14:57;;;;;;;22.77;11.60;;;;;;;;;;4992567;28;20123;-63
2021/04/17 08:17:25;;;;;;;26.15;12.38;;;;;;;;;;4991501;28;20054;-63
2021/04/17 08:19:56;;;;;;;25.10;12.68;;;;;;;;;;4992356;28;20112;-63
2021/04/17 08:22:24;;;;;;;24.35;11.73;;;;;;;;;;4984295;28;20123;-63
2021/04/17 08:24:52;;;;;;;28.95;13.55;;;;;;;;;;4986978;28;20050;-63
2021/04/17 08:27:19;;;;;;;29.25;13.48;;;;;;;;;;4989200;28;20050;-63
2021/04/17 08:29:51;;;;;;;28.45;12.43;;;;;;;;;;4990971;28;20125;-63
2021/04/17 08:32:23;;;;;;;22.42;11.60;;;;;;;;;;4992171;28;20497;-63
2021/04/17 08:34:58;;;;;;;22.13;10.25;;;;;;;;;;4991289;28;20137;-63
2021/04/17 08:37:26;;;;;;;21.42;10.13;;;;;;;;;;4990196;28;20077;-64
2021/04/17 08:39:54;;;;;;;20.58;10.52;;;;;;;;;;4991811;28;20046;-63
2021/04/17 08:42:48;;;;;;;22.25;10.60;;;;;;;;;;4991128;28;20054;-63
2021/04/17 08:45:17;;;;;;;23.08;10.82;;;;;;;;;;4974907;28;20506;-63
2021/04/17 08:47:46;;;;;;;22.52;10.80;;;;;;;;;;4990358;28;20077;-63
2021/04/17 08:50:29;;;;;;;20.08;9.90;;;;;;;;;;4991470;28;20046;-64
2021/04/17 08:52:57;;;;;;;20.95;10.77;;;;;;;;;;4987327;28;20100;-64
2021/04/17 08:55:45;;;;;;;25.42;11.75;;;;;;;;;;4988758;28;20056;-64
2021/04/17 08:58:17;;;;;;;22.65;10.85;;;;;;;;;;4990775;28;20050;-63
2021/04/17 09:01:04;;;;;;;18.63;9.63;;;;;;;;;;4986804;28;20097;-63
2021/04/17 09:03:39;;;;;;;20.33;9.55;;;;;;;;;;4990821;28;20051;-63
2021/04/17 09:06:09;;;;;;;18.45;10.02;;;;;;;;;;4991182;28;20749;-63
2021/04/17 09:08:39;;;;;;;18.83;9.90;;;;;;;;;;4990477;28;20054;-64
2021/04/17 09:11:25;;;;;;;18.98;10.15;;;;;;;;;;4986887;28;20092;-64
2021/04/17 09:13:52;;;;;;;21.48;10.20;;;;;;;;;;4991135;28;20443;-63
2021/04/17 09:16:36;;;;;;;16.63;8.65;;;;;;;;;;4989936;28;20094;-62
2021/04/17 09:19:04;;;;;;;23.50;10.48;;;;;;;;;;4989672;28;20144;-62
2021/04/17 09:21:36;;;;;;;16.67;9.02;;;;;;;;;;4990299;28;20042;-62
2021/04/17 09:24:04;;;;;;;17.40;9.35;;;;;;;;;;4979761;28;20050;-62
2021/04/17 09:26:37;;;;;;;15.93;8.52;;;;;;;;;;4983637;28;20125;-62
2021/04/17 09:29:07;;;;;;;15.90;8.60;;;;;;;;;;4990638;28;20054;-62
2021/04/17 09:31:34;;;;;;;17.00;7.40;;;;;;;;;;4991588;28;20417;-62
2021/04/17 09:34:03;;;;;;;15.48;7.75;;;;;;;;;;4991670;28;20050;-63
2021/04/17 09:36:31;;;;;;;11.73;7.10;;;;;;;;;;4985447;28;20054;-63
2021/04/17 09:39:00;;;;;;;14.38;6.13;;;;;;;;;;4983170;28;20054;-63
2021/04/17 09:41:42;;;;;;;14.73;7.65;;;;;;;;;;4992284;28;20446;-62
2021/04/17 09:44:11;;;;;;;11.90;6.18;;;;;;;;;;4982806;28;20562;-62
2021/04/17 09:46:39;;;;;;;16.23;8.38;;;;;;;;;;4986612;28;20089;-62
2021/04/17 09:49:07;;;;;;;14.30;7.85;;;;;;;;;;4985407;28;20121;-62
2021/04/17 09:51:34;;;;;;;16.52;8.73;;;;;;;;;;4993070;28;20054;-62
2021/04/17 09:54:04;;;;;;;17.25;9.60;;;;;;;;;;4984986;28;20406;-62
2021/04/17 09:56:32;;;;;;;15.35;9.65;;;;;;;;;;4985088;28;20061;-62
2021/04/17 09:59:00;;;;;;;17.20;8.55;;;;;;;;;;4989788;28;20082;-62
2021/04/17 10:01:27;;;;;;;18.65;10.20;;;;;;;;;;4989907;28;20129;-62
2021/04/17 10:03:59;;;;;;;17.02;8.88;;;;;;;;;;4997479;28;20505;-62
2021/04/17 10:06:27;;;;;;;17.98;9.80;;;;;;;;;;4997634;28;20065;-62
2021/04/17 10:08:55;;;;;;;15.27;7.68;;;;;;;;;;4992165;28;20065;-62
2021/04/17 10:11:25;;;;;;;19.38;7.85;;;;;;;;;;4988329;28;20054;-63
2021/04/17 10:13:53;;;;;;;15.43;7.13;;;;;;;;;;4983779;28;20495;-63
2021/04/17 10:16:25;;;;;;;21.45;9.48;;;;;;;;;;4981648;28;20556;-63
2021/04/17 10:18:53;;;;;;;17.90;8.85;;;;;;;;;;4987940;28;20097;-63
2021/04/17 10:21:25;;;;;;;14.52;8.70;;;;;;;;;;4980476;28;20056;-63
2021/04/17 10:24:11;;;;;;;13.68;7.93;;;;;;;;;;4988366;28;20077;-64
2021/04/17 10:26:48;;;;;;;16.13;9.00;;;;;;;;;;4984781;28;20150;-62
2021/04/17 10:29:16;;;;;;;18.95;9.55;;;;;;;;;;4979825;28;20058;-63
2021/04/17 10:31:43;;;;;;;16.35;8.98;;;;;;;;;;4988142;28;20482;-63
2021/04/17 10:34:11;;;;;;;15.77;9.00;;;;;;;;;;4986645;28;20407;-63
2021/04/17 10:36:39;;;;;;;13.18;8.15;;;;;;;;;;4987175;28;20463;-62
2021/04/17 10:39:07;;;;;;;14.32;7.75;;;;;;;;;;4981099;28;20048;-63
2021/04/17 10:41:35;;;;;;;20.58;8.10;;;;;;;;;;4988736;28;20055;-66
2021/04/17 10:44:10;;;;;;;12.52;7.25;;;;;;;;;;4987843;28;20051;-62
2021/04/17 10:46:42;;;;;;;16.33;7.18;;;;;;;;;;4986689;28;20078;-62
2021/04/17 10:49:10;;;;;;;14.63;7.93;;;;;;;;;;4959836;28;20050;-63
2021/04/17 10:51:38;;;;;;;13.73;7.50;;;;;;;;;;4968916;28;20141;-62
2021/04/17 10:54:06;;;;;;;12.32;6.13;;;;;;;;;;4971116;28;20090;-62
2021/04/17 10:56:35;;;;;;;11.05;6.45;;;;;;;;;;4971822;28;20039;-62
2021/04/17 10:59:05;;;;;;;11.60;7.10;;;;;;;;;;4988357;28;20058;-62
2021/04/17 11:01:36;;;;;;;13.48;7.55;;;;;;;;;;4994900;28;20431;-62
2021/04/17 11:04:05;;;;;;;11.23;6.38;;;;;;;;;;4991960;28;20054;-62
2021/04/17 11:06:35;;;;;;;13.50;7.72;;;;;;;;;;4990335;28;20054;-62
2021/04/17 11:09:07;;;;;;;12.48;6.97;;;;;;;;;;4998487;28;20053;-62
2021/04/17 11:11:34;;;;;;;11.80;7.28;;;;;;;;;;4990229;28;20054;-63
2021/04/17 11:14:04;;;;;;;13.30;7.50;;;;;;;;;;4989740;28;20054;-62
2021/04/17 11:16:36;;;;;;;11.32;6.80;;;;;;;;;;4988241;28;20490;-62
2021/04/17 11:19:04;;;;;;;12.90;6.53;;;;;;;;;;4989785;28;20101;-62
2021/04/17 11:21:33;;;;;;;12.57;7.38;;;;;;;;;;4988823;28;20158;-62
2021/04/17 11:24:02;;;;;;;13.13;7.57;;;;;;;;;;4988077;28;20046;-62
2021/04/17 11:26:33;;;;;;;14.77;7.20;;;;;;;;;;4989189;28;20039;-63
2021/04/17 11:29:02;;;;;;;14.82;7.93;;;;;;;;;;4984671;28;20054;-63
2021/04/17 11:31:30;;;;;;;14.85;8.70;;;;;;;;;;4989401;28;20141;-63
2021/04/17 11:34:00;;;;;;;14.32;8.45;;;;;;;;;;4997901;28;20058;-62
2021/04/17 11:36:29;;;;;;;15.63;8.57;;;;;;;;;;4992832;28;21684;-63
2021/04/17 11:38:57;;;;;;;15.10;8.63;;;;;;;;;;4990712;28;20051;-62
2021/04/17 11:41:24;;;;;;;14.75;8.43;;;;;;;;;;4992959;28;20553;-62
2021/04/17 11:43:52;;;;;;;16.00;9.68;;;;;;;;;;4991415;28;20482;-62
2021/04/17 11:46:20;;;;;;;17.48;8.95;;;;;;;;;;5002386;28;20046;-63
2021/04/17 11:48:50;;;;;;;16.70;9.88;;;;;;;;;;5010520;28;20482;-62
2021/04/17 11:51:19;;;;;;;16.25;9.43;;;;;;;;;;4991099;28;20042;-63
2021/04/17 11:53:47;;;;;;;18.77;10.00;;;;;;;;;;4994306;28;20085;-63
2021/04/17 11:56:15;;;;;;;17.88;10.10;;;;;;;;;;4994033;28;20133;-62
2021/04/17 11:58:43;;;;;;;20.95;9.98;;;;;;;;;;4991988;28;20043;-62
2021/04/17 12:01:10;;;;;;;21.50;11.55;;;;;;;;;;4993682;28;20093;-62
2021/04/17 12:03:38;;;;;;;21.58;11.95;;;;;;;;;;4994280;28;20054;-62
2021/04/17 12:06:07;;;;;;;19.45;10.80;;;;;;;;;;4994042;28;20054;-62
2021/04/17 12:08:36;;;;;;;21.75;11.52;;;;;;;;;;4994474;28;20519;-62
2021/04/17 12:11:05;;;;;;;21.30;11.27;;;;;;;;;;4993973;28;20046;-62
2021/04/17 12:13:33;;;;;;;18.88;10.95;;;;;;;;;;4994636;28;20644;-62
2021/04/17 12:16:02;;;;;;;18.00;11.27;;;;;;;;;;4988419;28;20053;-63
2021/04/17 12:18:29;;;;;;;21.52;12.20;;;;;;;;;;4992817;28;20054;-62
2021/04/17 12:20:57;;;;;;;20.65;11.30;;;;;;;;;;4993908;28;20081;-62
2021/04/17 12:23:24;;;;;;;17.55;10.18;;;;;;;;;;4989875;28;20113;-62
2021/04/17 12:25:53;;;;;;;18.33;10.45;;;;;;;;;;4991091;28;20472;-62
2021/04/17 12:28:21;;;;;;;17.77;10.73;;;;;;;;;;4981068;28;20058;-62
2021/04/17 12:30:49;;;;;;;18.23;9.88;;;;;;;;;;4988928;28;20050;-62
2021/04/17 12:33:17;;;;;;;16.13;9.73;;;;;;;;;;4991994;28;20133;-62
2021/04/17 12:35:44;;;;;;;15.98;9.27;;;;;;;;;;4993971;28;20050;-62
2021/04/17 12:38:12;;;;;;;15.25;9.35;;;;;;;;;;4993142;28;20074;-62
2021/04/17 12:40:39;;;;;;;14.00;8.95;;;;;;;;;;4997627;28;20337;-62
2021/04/17 12:43:08;;;;;;;18.70;9.02;;;;;;;;;;4999605;28;20058;-62
2021/04/17 12:45:37;;;;;;;14.65;8.90;;;;;;;;;;4992891;28;20509;-63
2021/04/17 12:48:05;;;;;;;16.42;9.77;;;;;;;;;;4991266;28;20065;-63
2021/04/17 12:50:33;;;;;;;16.27;8.95;;;;;;;;;;4993176;28;20050;-63
2021/04/17 12:53:01;;;;;;;15.25;9.13;;;;;;;;;;4988298;28;20528;-63
2021/04/17 12:55:29;;;;;;;15.35;10.02;;;;;;;;;;4992386;28;20046;-63
2021/04/17 12:57:56;;;;;;;14.63;8.93;;;;;;;;;;4991058;28;20046;-63
2021/04/17 13:00:26;;;;;;;13.50;8.55;;;;;;;;;;4993360;28;20082;-63
2021/04/17 13:02:53;;;;;;;14.73;8.98;;;;;;;;;;4991524;28;20108;-63
2021/04/17 13:05:21;;;;;;;18.60;10.07;;;;;;;;;;4994927;28;20046;-63
2021/04/17 13:07:49;;;;;;;16.92;9.27;;;;;;;;;;4999569;28;20130;-62
2021/04/17 13:10:17;;;;;;;13.48;9.68;;;;;;;;;;4992825;28;20051;-62
2021/04/17 13:12:44;;;;;;;18.88;10.63;;;;;;;;;;4981586;28;20050;-63
2021/04/17 13:15:12;;;;;;;16.08;9.82;;;;;;;;;;4987158;28;20050;-63
2021/04/17 13:17:41;;;;;;;16.63;10.60;;;;;;;;;;4984491;28;20343;-63
2021/04/17 13:20:09;;;;;;;20.40;10.38;;;;;;;;;;4991199;28;20137;-66
2021/04/17 13:22:37;;;;;;;14.73;9.68;;;;;;;;;;5005474;28;20058;-63
2021/04/17 13:25:05;;;;;;;17.25;9.82;;;;;;;;;;4991125;28;20049;-62
2021/04/17 13:27:32;;;;;;;20.27;11.88;;;;;;;;;;4991156;28;20038;-63
2021/04/17 13:30:00;;;;;;;16.02;10.82;;;;;;;;;;4991413;28;20510;-63
2021/04/17 13:32:27;;;;;;;17.35;10.57;;;;;;;;;;4990688;28;20410;-63
2021/04/17 13:34:56;;;;;;;19.73;10.68;;;;;;;;;;4993235;28;20134;-64
2021/04/17 13:37:25;;;;;;;17.30;10.95;;;;;;;;;;4987752;28;20449;-64
2021/04/17 13:39:53;;;;;;;22.00;11.63;;;;;;;;;;4989022;28;20050;-64
2021/04/17 13:42:20;;;;;;;17.40;10.70;;;;;;;;;;4990426;28;20545;-64
2021/04/17 13:44:48;;;;;;;15.65;11.10;;;;;;;;;;4996115;28;20211;-64
2021/04/17 13:47:16;;;;;;;17.88;11.38;;;;;;;;;;4999830;28;20137;-64
2021/04/17 13:49:44;;;;;;;17.88;11.45;;;;;;;;;;4990469;28;20076;-64
2021/04/17 13:52:12;;;;;;;18.70;10.82;;;;;;;;;;4989563;28;20074;-64
2021/04/17 13:54:40;;;;;;;16.33;11.48;;;;;;;;;;4995357;28;20085;-64
2021/04/17 13:57:08;;;;;;;17.17;11.23;;;;;;;;;;4994138;28;20050;-63
2021/04/17 13:59:35;;;;;;;19.00;12.05;;;;;;;;;;4997005;28;20046;-63
2021/04/17 14:02:03;;;;;;;18.15;11.15;;;;;;;;;;4988760;28;20050;-64
2021/04/17 14:04:31;;;;;;;17.23;12.18;;;;;;;;;;4990593;28;20133;-64
2021/04/17 14:06:59;;;;;;;20.58;11.52;;;;;;;;;;4989530;28;20454;-64
2021/04/17 14:09:28;;;;;;;21.88;11.70;;;;;;;;;;4989463;28;20161;-64
2021/04/17 14:11:55;;;;;;;18.90;11.77;;;;;;;;;;4986854;28;20091;-64
2021/04/17 14:14:23;;;;;;;18.63;11.20;;;;;;;;;;4986468;28;20471;-64
2021/04/17 14:16:51;;;;;;;18.65;11.65;;;;;;;;;;4989461;28;20050;-64
2021/04/17 14:19:18;;;;;;;16.48;11.75;;;;;;;;;;4995906;28;20073;-64
2021/04/17 14:21:47;;;;;;;17.42;11.90;;;;;;;;;;5004659;28;20568;-64
2021/04/17 14:24:15;;;;;;;17.35;11.55;;;;;;;;;;4984613;28;20061;-64
2021/04/17 14:26:43;;;;;;;16.38;10.45;;;;;;;;;;4978853;28;20053;-65
2021/04/17 14:29:11;;;;;;;19.40;11.82;;;;;;;;;;4988295;28;20053;-64
2021/04/17 14:31:38;;;;;;;18.60;11.30;;;;;;;;;;4986616;28;20405;-64
2021/04/17 14:34:06;;;;;;;18.70;12.48;;;;;;;;;;4988402;28;20418;-64
2021/04/17 14:36:34;;;;;;;19.80;12.25;;;;;;;;;;4990655;28;20100;-64